createdAt,value
2023-03-19T00:01:18.880Z,14.52
2023-03-19T00:06:21.428Z,10.70
2023-03-19T00:11:24.137Z,11.90
2023-03-19T00:16:28.272Z,10.95
2023-03-19T00:21:31.129Z,11.07
2023-03-19T00:26:34.294Z,9.93
2023-03-19T00:31:38.162Z,10.15
2023-03-19T00:36:40.728Z,12.05
2023-03-19T00:41:50.215Z,10.88
2023-03-19T00:46:54.169Z,13.02
2023-03-19T00:51:56.727Z,11.05
2023-03-19T00:56:59.265Z,10.93
2023-03-19T01:02:03.645Z,10.18
2023-03-19T01:07:06.484Z,12.88
2023-03-19T01:12:09.545Z,10.18
2023-03-19T01:17:13.625Z,9.98
2023-03-19T01:22:16.723Z,10.27
2023-03-19T01:27:23.919Z,10.27
2023-03-19T01:32:28.491Z,9.48
2023-03-19T01:37:44.525Z,11.35
2023-03-19T01:42:54.949Z,9.70
2023-03-19T01:48:21.344Z,12.05
2023-03-19T01:53:37.153Z,10.68
2023-03-19T01:58:53.137Z,10.88
2023-03-19T02:04:23.791Z,10.00
2023-03-19T02:09:27.741Z,9.73
2023-03-19T02:14:30.292Z,9.10
2023-03-19T02:19:39.206Z,11.18
2023-03-19T02:24:46.106Z,10.93
2023-03-19T02:29:54.248Z,11.25
2023-03-19T02:34:58.846Z,11.65
2023-03-19T02:40:04.485Z,8.98
2023-03-19T02:45:09.910Z,10.15
2023-03-19T02:50:12.893Z,10.02
2023-03-19T02:55:18.515Z,10.68
2023-03-19T03:00:22.594Z,9.32
2023-03-19T03:05:25.420Z,11.02
2023-03-19T03:10:28.632Z,9.35
2023-03-19T03:15:33.123Z,8.88
2023-03-19T03:20:35.954Z,10.15
2023-03-19T03:25:40.215Z,8.02
2023-03-19T03:30:44.162Z,8.95
2023-03-19T03:35:47.204Z,9.32
2023-03-19T03:40:50.967Z,7.38
2023-03-19T03:45:55.055Z,10.38
2023-03-19T03:50:57.940Z,10.23
2023-03-19T03:56:03.474Z,10.40
2023-03-19T04:01:08.851Z,9.18
2023-03-19T04:06:14.518Z,8.75
2023-03-19T04:11:17.261Z,8.00
2023-03-19T04:16:21.280Z,11.85
2023-03-19T04:21:24.238Z,9.90
2023-03-19T04:26:27.036Z,8.95
2023-03-19T04:31:31.126Z,12.57
2023-03-19T04:36:33.785Z,8.30
2023-03-19T04:41:36.529Z,10.65
2023-03-19T04:47:06.593Z,11.88
2023-03-19T04:52:23.777Z,9.90
2023-03-19T04:57:26.962Z,9.75
2023-03-19T05:02:32.799Z,8.55
2023-03-19T05:07:36.324Z,12.32
2023-03-19T05:12:41.054Z,10.73
2023-03-19T05:17:45.326Z,8.35
2023-03-19T05:22:52.894Z,7.80
2023-03-19T05:27:57.151Z,6.88
2023-03-19T05:33:03.432Z,9.45
2023-03-19T05:38:11.272Z,8.10
2023-03-19T05:43:16.014Z,8.10
2023-03-19T05:48:20.949Z,8.77
2023-03-19T05:53:24.356Z,8.38
2023-03-19T05:58:52.477Z,9.00
2023-03-19T06:04:02.750Z,10.80
2023-03-19T06:09:07.009Z,7.55
2023-03-19T06:14:13.218Z,8.48
2023-03-19T06:19:21.090Z,9.82
2023-03-19T06:24:24.126Z,8.15
2023-03-19T06:29:26.985Z,8.98
2023-03-19T06:34:37.505Z,8.60
2023-03-19T06:39:41.158Z,8.52
2023-03-19T06:44:43.824Z,10.20
2023-03-19T06:49:47.737Z,8.13
2023-03-19T06:54:50.577Z,8.40
2023-03-19T06:59:53.302Z,9.40
2023-03-19T07:04:57.450Z,8.85
2023-03-19T07:10:00.149Z,10.00
2023-03-19T07:15:02.731Z,7.65
2023-03-19T07:20:07.428Z,9.25
2023-03-19T07:25:10.676Z,8.20
2023-03-19T07:30:14.407Z,10.73
2023-03-19T07:35:18.412Z,19.17
2023-03-19T07:40:21.161Z,10.80
2023-03-19T07:45:23.861Z,9.90
2023-03-19T07:50:27.791Z,10.15
2023-03-19T07:55:30.665Z,8.30
2023-03-19T08:00:33.595Z,9.95
2023-03-19T08:05:37.831Z,6.70
2023-03-19T08:10:40.713Z,9.88
2023-03-19T08:15:43.733Z,10.25
2023-03-19T08:20:47.973Z,7.68
2023-03-19T08:25:52.118Z,8.73
2023-03-19T08:30:55.652Z,10.00
2023-03-19T08:36:06.216Z,8.93
2023-03-19T08:41:09.125Z,10.02
2023-03-19T08:46:11.756Z,9.07
2023-03-19T08:51:15.712Z,8.98
2023-03-19T08:56:18.300Z,8.85
2023-03-19T09:01:21.092Z,7.10
2023-03-19T09:06:25.069Z,8.65
2023-03-19T09:11:27.808Z,8.32
2023-03-19T09:16:31.228Z,9.65
2023-03-19T09:21:35.423Z,12.60
2023-03-19T09:26:37.964Z,8.55
2023-03-19T09:31:41.578Z,10.05
2023-03-19T09:36:45.710Z,7.38
2023-03-19T09:42:00.018Z,10.23
2023-03-19T09:47:10.167Z,10.45
2023-03-19T09:52:21.396Z,8.13
2023-03-19T09:57:24.044Z,7.68
2023-03-19T10:02:40.146Z,7.28
2023-03-19T10:07:54.924Z,9.15
2023-03-19T10:13:00.681Z,6.45
2023-03-19T10:18:05.044Z,9.00
2023-03-19T10:23:19.095Z,10.00
2023-03-19T10:28:22.810Z,7.18
2023-03-19T10:33:26.381Z,10.98
2023-03-19T10:38:33.667Z,7.60
2023-03-19T10:43:38.097Z,10.13
2023-03-19T10:48:44.417Z,10.38
2023-03-19T10:53:48.365Z,10.05
2023-03-19T10:58:58.297Z,9.77
2023-03-19T11:04:01.715Z,8.82
2023-03-19T11:09:15.424Z,9.38
2023-03-19T11:14:19.236Z,6.43
2023-03-19T11:19:22.934Z,10.38
2023-03-19T11:24:27.362Z,6.60
2023-03-19T11:29:30.396Z,6.28
2023-03-19T11:34:36.978Z,6.55
2023-03-19T11:39:45.686Z,5.55
2023-03-19T11:44:54.534Z,6.95
2023-03-19T11:50:05.239Z,5.53
2023-03-19T11:55:18.726Z,3.20
2023-03-19T12:00:29.816Z,2.67
2023-03-19T12:05:33.965Z,3.50
2023-03-19T12:10:49.229Z,3.75
2023-03-19T12:15:56.017Z,5.15
2023-03-19T12:21:02.942Z,2.28
2023-03-19T12:26:08.829Z,3.72
2023-03-19T12:31:29.420Z,4.47
2023-03-19T12:36:33.896Z,2.60
2023-03-19T12:41:41.591Z,3.45
2023-03-19T12:46:45.960Z,2.78
2023-03-19T12:51:52.056Z,2.22
2023-03-19T12:56:59.814Z,4.80
2023-03-19T13:02:05.653Z,2.22
2023-03-19T13:07:11.147Z,3.47
2023-03-19T13:12:18.542Z,3.50
2023-03-19T13:17:24.853Z,3.40
2023-03-19T13:22:29.409Z,1.52
2023-03-19T13:27:34.452Z,1.75
2023-03-19T13:32:39.657Z,3.40
2023-03-19T13:37:43.021Z,2.33
2023-03-19T13:42:57.162Z,3.88
2023-03-19T13:48:24.424Z,1.60
2023-03-19T13:53:35.581Z,2.38
2023-03-19T13:58:52.142Z,3.35
2023-03-19T14:03:56.360Z,2.63
2023-03-19T14:08:59.304Z,2.08
2023-03-19T14:14:05.514Z,1.27
2023-03-19T14:19:12.449Z,2.30
2023-03-19T14:24:54.445Z,2.67
2023-03-19T14:29:47.624Z,2.25
2023-03-19T14:34:50.996Z,1.75
2023-03-19T14:39:55.762Z,3.63
2023-03-19T14:45:18.846Z,3.65
2023-03-19T14:50:36.595Z,1.40
2023-03-19T14:55:39.332Z,1.98
2023-03-19T15:00:44.742Z,2.00
2023-03-19T15:05:50.166Z,1.40
2023-03-19T15:10:59.291Z,1.30
2023-03-19T15:16:26.167Z,1.40
2023-03-19T15:21:31.809Z,1.17
2023-03-19T15:26:35.149Z,1.42
2023-03-19T15:31:53.988Z,1.23
2023-03-19T15:37:08.165Z,3.75
2023-03-19T15:42:10.980Z,1.50
2023-03-19T15:47:17.104Z,1.20
2023-03-19T15:52:21.531Z,1.42
2023-03-19T15:57:24.840Z,2.33
2023-03-19T16:02:29.297Z,2.17
2023-03-19T16:07:40.488Z,2.80
2023-03-19T16:12:43.346Z,1.38
2023-03-19T16:17:46.024Z,4.45
2023-03-19T16:22:53.472Z,3.10
2023-03-19T16:27:56.086Z,3.20
2023-03-19T16:33:00.049Z,2.17
2023-03-19T16:38:13.912Z,1.73
2023-03-19T16:43:18.435Z,1.20
2023-03-19T16:48:21.011Z,1.88
2023-03-19T16:53:25.992Z,0.98
2023-03-19T16:58:30.381Z,1.30
2023-03-19T17:03:33.197Z,1.10
2023-03-19T17:08:37.171Z,2.63
2023-03-19T17:13:43.714Z,1.63
2023-03-19T17:18:47.865Z,1.60
2023-03-19T17:23:51.916Z,3.00
2023-03-19T17:28:55.095Z,2.00
2023-03-19T17:33:59.413Z,3.47
2023-03-19T17:39:03.374Z,2.65
2023-03-19T17:44:06.827Z,2.20
2023-03-19T17:49:13.470Z,1.92
2023-03-19T17:54:17.927Z,2.17
2023-03-19T17:59:20.514Z,1.88
2023-03-19T18:04:23.552Z,2.05
2023-03-19T18:09:28.468Z,1.92
2023-03-19T18:14:31.086Z,2.63
2023-03-19T18:19:34.454Z,2.17
2023-03-19T18:24:38.464Z,1.25
2023-03-19T18:29:41.174Z,2.42
2023-03-19T18:34:43.773Z,1.45
2023-03-19T18:39:47.813Z,1.70
2023-03-19T18:44:50.710Z,2.08
2023-03-19T18:49:57.489Z,3.15
2023-03-19T18:55:01.478Z,3.55
2023-03-19T19:00:04.341Z,2.25
2023-03-19T19:05:07.198Z,2.60
2023-03-19T19:10:11.959Z,4.50
2023-03-19T19:15:20.024Z,4.13
2023-03-19T19:20:23.710Z,4.07
2023-03-19T19:25:28.640Z,3.60
2023-03-19T19:30:31.674Z,3.90
2023-03-19T19:35:34.281Z,4.35
2023-03-19T19:40:38.440Z,2.45
2023-03-19T19:45:41.966Z,2.60
2023-03-19T19:50:45.156Z,3.38
2023-03-19T19:55:49.104Z,3.17
2023-03-19T20:01:02.969Z,3.35
2023-03-19T20:06:06.868Z,3.55
2023-03-19T20:11:15.371Z,3.53
2023-03-19T20:16:18.518Z,3.22
2023-03-19T20:21:21.587Z,4.68
2023-03-19T20:26:25.751Z,7.35
2023-03-19T20:31:31.086Z,3.65
2023-03-19T20:36:33.720Z,3.30
2023-03-19T20:41:37.729Z,3.05
2023-03-19T20:46:41.000Z,4.35
2023-03-19T20:51:43.668Z,7.05
2023-03-19T20:56:48.051Z,4.53
2023-03-19T21:01:52.674Z,4.28
2023-03-19T21:06:56.190Z,4.60
2023-03-19T21:12:00.498Z,4.30
2023-03-19T21:17:03.136Z,4.40
2023-03-19T21:22:06.613Z,3.70
2023-03-19T21:27:14.756Z,4.40
2023-03-19T21:32:19.782Z,6.00
2023-03-19T21:37:22.349Z,4.45
2023-03-19T21:42:26.532Z,4.80
2023-03-19T21:47:29.219Z,3.85
2023-03-19T21:52:37.596Z,4.35
2023-03-19T21:57:50.002Z,3.00
2023-03-19T22:02:52.608Z,6.28
2023-03-19T22:07:56.128Z,3.90
2023-03-19T22:13:00.144Z,3.50
2023-03-19T22:18:03.065Z,3.97
2023-03-19T22:23:06.140Z,3.00
2023-03-19T22:28:14.600Z,5.88
2023-03-19T22:33:17.961Z,3.47
2023-03-19T22:38:21.616Z,4.57
2023-03-19T22:43:28.638Z,2.60
2023-03-19T22:48:31.568Z,2.00
2023-03-19T22:53:34.996Z,5.03
2023-03-19T22:58:39.257Z,3.97
2023-03-19T23:03:41.940Z,1.73
2023-03-19T23:08:44.550Z,2.90
2023-03-19T23:13:48.550Z,1.70
2023-03-19T23:18:51.128Z,4.00
2023-03-19T23:23:54.526Z,1.90
2023-03-19T23:29:00.587Z,1.83
2023-03-19T23:34:03.109Z,1.85
2023-03-19T23:39:07.080Z,1.73
2023-03-19T23:44:12.635Z,1.33
2023-03-19T23:49:15.930Z,2.08
2023-03-19T23:54:36.877Z,1.77
2023-03-19T23:59:42.547Z,2.90
